Aviation Digital Data Service (ADDS)

Output produced by METARs form (1750 UTC 21 October 2017)
found at http://www.aviationweather.gov/adds/metars/
 
KGLH 211653Z 16018G22KT 10SM CLR 28/18 A3007 RMK AO2 SLP187 T02780178
KGLH 211553Z 16010G18KT 10SM CLR 26/17 A3009 RMK AO2 SLP195 T02610167
KGLH 211453Z 16009KT 10SM CLR 23/14 A3010 RMK AO2 SLP199 T02280144 51010
KGLH 211353Z 15007KT 10SM CLR 21/14 A3010 RMK AO2 SLP197 T02110139
KGLH 211253Z 13007KT 10SM CLR 18/13 A3008 RMK AO2 SLP192 T01780133
KGLH 211153Z 12008KT 10SM CLR 18/14 A3007 RMK AO2 SLP188 T01830139 10200 20172 51004
KGLH 211053Z AUTO 12006KT 10SM CLR 18/14 A3006 RMK AO2 SLP186 T01780144
KGLH 210953Z AUTO 13004KT 10SM CLR 17/14 A3007 RMK AO2 SLP187 T01720139
KGLH 210853Z AUTO 15004KT 10SM CLR 19/14 A3006 RMK AO2 SLP184 T01890144 57002
KGLH 210753Z AUTO 15006KT 10SM CLR 19/14 A3006 RMK AO2 SLP185 T01890144
KGLH 210653Z AUTO 14009KT 10SM BKN060 19/14 A3006 RMK AO2 SLP185 T01940144
KGLH 210553Z AUTO 14011KT 10SM CLR 20/14 A3006 RMK AO2 SLP185 T02000144 10211 20161 402610100 58005
KGLH 210453Z AUTO 14011KT 10SM SCT047 SCT055 21/14 A3008 RMK AO2 SLP190 T02060144
KGLH 210353Z AUTO 10004KT 10SM SCT045 18/13 A3007 RMK AO2 SLP190 T01830128
KGLH 210253Z AUTO 11005KT 10SM CLR 18/13 A3008 RMK AO2 SLP191 T01780128 55000
KGLH 210153Z AUTO 10004KT 10SM CLR 17/13 A3007 RMK AO2 SLP188 T01720128
KGLH 210053Z AUTO 10004KT 10SM FEW050 17/13 A3007 RMK AO2 SLP190 T01720128
KGLH 202353Z AUTO 11004KT 10SM CLR 20/13 A3008 RMK AO2 SLP192 T02000128 10261 20194 55000
KGLH 202253Z 13003KT 10SM CLR 23/13 A3008 RMK AO2 SLP191 T02330128
KGLH 202153Z 14011KT 10SM CLR 25/11 A3008 RMK AO2 SLP190 T02500111
KGLH 202053Z 15005KT 9SM CLR 26/13 A3008 RMK AO2 SLP191 T02560128 56025
KGLH 201953Z 16006KT 10SM CLR 26/13 A3009 RMK AO2 SLP197 T02560128
KGLH 201853Z 19007KT 10SM CLR 25/13 A3012 RMK AO2 SLP204 T02500128
KGLH 201753Z 14007KT 10SM CLR 25/13 A3015 RMK AO2 PRESFR SLP216 T02500128 10250 20100 58023
KGLH 201653Z 17007KT 10SM CLR 23/14 A3019 RMK AO2 SLP230 T02330139
KGLH 201553Z 15008KT 10SM CLR 22/13 A3021 RMK AO2 SLP236 T02170133
KGLH 201453Z 14007KT 10SM CLR 19/13 A3022 RMK AO2 SLP240 T01940133 51008
KGLH 201353Z 11005KT 10SM CLR 16/13 A3022 RMK AO2 SLP239 T01610128
KGLH 201253Z 00000KT 7SM CLR 11/09 A3020 RMK AO2 SLP234 T01060089
KGLH 201153Z 00000KT 10SM CLR 11/10 A3019 RMK AO2 SLP232 T01110100 10133 20111 53005
KGLH 201053Z AUTO 11003KT 10SM CLR 12/11 A3019 RMK AO2 SLP228 T01220106
KGLH 200953Z AUTO 00000KT 10SM CLR 12/10 A3018 RMK AO2 SLP227 T01220100
KGLH 200853Z AUTO 11005KT 10SM CLR 12/10 A3018 RMK AO2 SLP226 T01220100 58002
KGLH 200753Z AUTO 12004KT 10SM CLR 12/09 A3019 RMK AO2 SLP227 T01220094
KGLH 200653Z AUTO 11003KT 10SM CLR 12/09 A3019 RMK AO2 SLP227 T01220094
KGLH 200553Z AUTO 11004KT 10SM CLR 12/09 A3019 RMK AO2 SLP228 T01170089 10200 20117 402670061 58001
KGLH 200453Z AUTO 00000KT 10SM CLR 14/08 A3019 RMK AO2 SLP229 T01390083
KGLH 200353Z AUTO 12003KT 10SM CLR 13/08 A3019 RMK AO2 SLP231 T01330083
KGLH 200253Z AUTO 00000KT 10SM CLR 14/09 A3019 RMK AO2 SLP229 T01440089 53009
KGLH 200153Z AUTO 11004KT 10SM CLR 17/09 A3017 RMK AO2 SLP225 T01670089
KGLH 200053Z AUTO 10004KT 10SM CLR 17/09 A3017 RMK AO2 SLP224 T01670089
KGLH 192353Z AUTO 16006KT 10SM CLR 17/09 A3016 RMK AO2 SLP221 T01720094 10267 20172 53001
KGLH 192345Z AUTO 10004KT 10SM CLR 18/10 A3016 RMK AO2 T01830100
KGLH 192338Z AUTO 10003KT 2 1/2SM CLR 19/10 A3016 RMK AO2 T01890100
KGLH 192253Z 07004KT 10SM CLR 23/09 A3015 RMK AO2 SLP218 T02330089
KGLH 192153Z 12006KT 10SM CLR 26/07 A3015 RMK AO2 SLP218 T02560072
KGLH 192053Z 12006KT 10SM CLR 26/08 A3016 RMK AO2 SLP219 T02560078 56024
KGLH 191953Z VRB06KT 10SM CLR 26/09 A3017 RMK AO2 SLP223 T02560089
KGLH 191853Z 11005KT 10SM FEW002 26/09 A3019 RMK AO2 SLP232 T02560094
KGLH 191845Z 07005KT 5SM FEW002 26/09 A3020 RMK AO2 T02560094
KGLH 191753Z 00000KT 10SM CLR 23/11 A3023 RMK AO2 SLP243 T02330111 10244 20061 58012
KGLH 191653Z 36004KT 10SM CLR 23/11 A3025 RMK AO2 SLP250 T02330106
KGLH 191553Z VRB04KT 10SM CLR 21/11 A3026 RMK AO2 SLP255 T02060111
KGLH 191453Z 16004KT 10SM CLR 18/11 A3026 RMK AO2 SLP255 T01830106 53014
KGLH 191353Z 15004KT 10SM CLR 13/09 A3025 RMK AO2 SLP250 T01330094
KGLH 191253Z 00000KT 10SM CLR 08/07 A3023 RMK AO2 SLP245 T00830067
KGLH 191245Z 14003KT 2SM CLR 07/06 A3023 RMK AO2 T00720056
KGLH 191229Z 00000KT 4SM CLR 07/05 A3023 RMK AO2 T00670050
KGLH 191220Z 00000KT 1 3/4SM CLR 06/05 A3022 RMK AO2 T00610050
KGLH 191153Z 00000KT 10SM CLR 07/04 A3022 RMK AO2 SLP241 T00670044 10111 20061 53014
KGLH 191053Z AUTO 10003KT 10SM CLR 08/06 A3021 RMK AO2 SLP236 T00780056
KGLH 190953Z AUTO 00000KT 10SM CLR 08/05 A3019 RMK AO2 SLP231 T00780050
KGLH 190853Z AUTO 00000KT 10SM CLR 08/06 A3018 RMK AO2 SLP227 T00830056 53001
KGLH 190753Z AUTO 09003KT 10SM CLR 08/06 A3018 RMK AO2 SLP226 T00780061
KGLH 190653Z AUTO 00000KT 10SM CLR 09/06 A3018 RMK AO2 SLP226 T00890061
KGLH 190553Z AUTO 16005KT 10SM CLR 11/06 A3018 RMK AO2 SLP226 T01060061 10183 20106 402500067 58002
KGLH 190453Z AUTO 14005KT 10SM CLR 12/07 A3018 RMK AO2 SLP228 T01220067
KGLH 190353Z AUTO 12004KT 10SM CLR 14/07 A3019 RMK AO2 SLP231 T01390067
KGLH 190253Z AUTO 13005KT 10SM CLR 12/07 A3018 RMK AO2 SLP228 T01220067 51005
KGLH 190153Z AUTO 12005KT 10SM CLR 16/06 A3018 RMK AO2 SLP227 T01560061
KGLH 190053Z AUTO 11005KT 10SM CLR 16/06 A3018 RMK AO2 SLP227 T01560061
KGLH 182353Z AUTO 11005KT 10SM CLR 18/07 A3017 RMK AO2 SLP223 T01830067 10250 20183 53005
KGLH 182253Z 12006KT 10SM CLR 23/06 A3016 RMK AO2 SLP219 T02280056
KGLH 182153Z 14006KT 10SM CLR 24/06 A3015 RMK AO2 SLP217 T02440056
KGLH 182111Z 15008KT 10SM CLR 25/06 A3015 RMK AO2 T02500061
KGLH 182056Z VRB05KT 1 3/4SM FEW002 25/06 A3015 RMK AO2 T02500061
KGLH 182053Z 15006KT 10SM CLR 25/07 A3015 RMK AO2 SLP218 T02500072 56023
KGLH 181953Z VRB03KT 10SM CLR 25/06 A3016 RMK AO2 SLP221 T02500061
KGLH 181853Z 10SM CLR 24/07 A3019 RMK AO2 SLP229 T02390072
KGLH 181753Z 11003KT 10SM CLR 23/08 A3022 RMK AO2 SLP241 T02280078 10228 20067 58015